Time;durP1;ratioP1;P1;durP2;ratioP2;P2;SDS_P1;SDS_P2;PMS_P1;PMS_P2;Temp;Humidity;BMP_temperature;BMP_pressure;BME280_temperature;BME280_humidity;BME280_pressure;Samples;Min_cycle;Max_cycle;Signal;HPM_P1;HPM_P2
2021/07/29 08:24:13;;;;;;;7.28;4.40;;;19.50;99.90;;;;;;4911484;29;20418;-93
2021/07/29 08:32:55;;;;;;;7.57;4.10;;;19.30;99.90;;;;;;5240291;23;20532;-93
2021/07/29 09:58:02;;;;;;;8.20;4.38;;;21.40;99.90;;;;;;5780889;23;20907;-94
2021/07/29 16:07:02;;;;;;;4.50;3.13;;;27.40;89.70;;;;;;4958496;28;20433;-96
2021/07/29 16:09:30;;;;;;;4.78;3.05;;;27.70;84.00;;;;;;4941720;29;20434;-91
2021/07/29 16:11:57;;;;;;;4.50;3.13;;;27.90;85.90;;;;;;4941650;29;20441;-96
2021/07/29 16:14:30;;;;;;;4.45;2.90;;;28.30;85.20;;;;;;4941917;29;20445;-91
2021/07/29 16:16:57;;;;;;;6.77;2.97;;;28.70;81.80;;;;;;4942651;29;20956;-90
2021/07/29 16:22:46;;;;;;;4.43;3.05;;;28.90;82.50;;;;;;5270790;23;20423;-95
2021/07/29 16:25:43;;;;;;;4.97;3.30;;;28.50;79.80;;;;;;4985871;28;20484;-96
2021/07/29 16:28:27;;;;;;;5.00;3.05;;;27.80;81.90;;;;;;4968862;28;20451;-96
2021/07/29 16:31:24;;;;;;;10.80;3.33;;;27.40;81.10;;;;;;4958490;29;20444;-96
2021/07/29 16:34:01;;;;;;;3.97;3.28;;;27.40;84.20;;;;;;4953808;29;20430;-95
2021/07/29 16:39:42;;;;;;;5.22;2.90;;;27.70;83.20;;;;;;4912409;29;20972;-93
2021/07/29 16:42:23;;;;;;;4.27;3.07;;;27.80;81.10;;;;;;4922456;29;20429;-93
2021/07/29 16:45:08;;;;;;;5.25;3.22;;;27.80;81.60;;;;;;4908976;29;20456;-96
2021/07/29 16:47:35;;;;;;;5.28;3.08;;;27.80;81.90;;;;;;4902263;29;20432;-95
2021/07/29 16:50:03;;;;;;;5.77;3.30;;;27.50;83.30;;;;;;4901737;29;20440;-95
2021/07/29 16:52:33;;;;;;;3.60;2.97;;;27.30;83.00;;;;;;4911397;29;20433;-89
2021/07/29 16:55:37;;;;;;;5.03;3.50;;;27.10;86.00;;;;;;4912082;29;20416;-90
2021/07/29 16:58:20;;;;;;;4.63;3.22;;;27.20;83.70;;;;;;4909772;29;20464;-92
2021/07/29 17:01:01;;;;;;;4.10;3.30;;;27.10;82.60;;;;;;5041019;23;20836;-90
2021/07/29 17:03:29;;;;;;;6.63;3.40;;;27.00;84.40;;;;;;4931216;29;20428;-90
2021/07/29 17:06:00;;;;;;;6.03;3.20;;;26.90;84.40;;;;;;4946936;28;20756;-90
2021/07/29 17:08:27;;;;;;;6.85;3.22;;;26.90;84.80;;;;;;4947343;29;20435;-89
2021/07/29 17:10:54;;;;;;;8.87;3.27;;;27.00;85.40;;;;;;4926191;29;20498;-88
2021/07/29 17:13:21;;;;;;;4.82;3.25;;;27.10;86.00;;;;;;4934223;23;20465;-89
2021/07/29 17:15:48;;;;;;;6.50;3.50;;;27.30;85.00;;;;;;4924900;29;20436;-89
2021/07/29 17:18:15;;;;;;;5.28;3.47;;;27.00;87.70;;;;;;4946188;29;20526;-88
2021/07/29 17:20:43;;;;;;;4.85;3.30;;;27.20;85.80;;;;;;4940180;29;20423;-93
2021/07/29 17:23:12;;;;;;;5.90;3.25;;;27.20;84.90;;;;;;4937210;29;20819;-90
2021/07/29 17:25:39;;;;;;;4.22;3.28;;;27.20;83.30;;;;;;4936424;29;20431;-91
2021/07/29 17:28:06;;;;;;;4.93;3.25;;;27.10;85.70;;;;;;4939120;29;20426;-88
2021/07/29 17:30:33;;;;;;;8.20;3.17;;;26.90;84.70;;;;;;4939517;29;20902;-91
2021/07/29 17:33:00;;;;;;;5.77;3.17;;;26.70;85.10;;;;;;4937863;29;20483;-88
2021/07/29 17:35:27;;;;;;;6.63;3.30;;;26.70;85.60;;;;;;4937257;29;20467;-88
2021/07/29 17:37:55;;;;;;;4.68;3.22;;;26.50;85.30;;;;;;4936226;29;20435;-87
2021/07/29 17:40:23;;;;;;;6.30;3.27;;;26.20;85.80;;;;;;4936309;29;20495;-89
2021/07/29 17:42:50;;;;;;;5.78;3.38;;;25.90;87.40;;;;;;4937274;29;20427;-89
2021/07/29 17:45:18;;;;;;;3.70;3.30;;;25.90;88.20;;;;;;4936720;29;20438;-95
2021/07/29 17:47:45;;;;;;;6.20;3.20;;;25.70;88.00;;;;;;4937117;29;20451;-96
2021/07/29 17:50:13;;;;;;;5.97;3.33;;;25.50;87.90;;;;;;4936198;29;20480;-89
2021/07/29 17:52:40;;;;;;;7.70;3.30;;;25.20;89.10;;;;;;4937348;29;20427;-89
2021/07/29 17:55:08;;;;;;;6.88;3.40;;;25.10;88.80;;;;;;4936395;29;20510;-90
2021/07/29 17:57:35;;;;;;;7.40;3.37;;;24.90;89.50;;;;;;4936446;29;20430;-89
2021/07/29 18:00:06;;;;;;;3.75;3.22;;;24.80;90.50;;;;;;4936375;29;20447;-95
2021/07/29 18:02:33;;;;;;;4.45;3.40;;;24.70;92.30;;;;;;4936722;29;20820;-89
2021/07/29 18:05:01;;;;;;;8.18;3.30;;;24.60;94.10;;;;;;4935943;29;20450;-92
2021/07/29 18:07:32;;;;;;;6.03;3.60;;;24.40;93.90;;;;;;4939374;29;20420;-94
2021/07/29 18:09:59;;;;;;;7.63;3.50;;;23.90;94.50;;;;;;4936828;29;20419;-88
2021/07/29 18:12:26;;;;;;;7.55;3.50;;;23.40;94.90;;;;;;4939074;29;20505;-88
2021/07/29 18:14:54;;;;;;;5.30;3.30;;;23.10;97.30;;;;;;4939879;29;20754;-89
2021/07/29 18:17:21;;;;;;;5.13;3.60;;;22.60;97.70;;;;;;4956340;29;20426;-88
2021/07/29 18:19:54;;;;;;;8.07;3.75;;;22.30;99.10;;;;;;4939510;29;20465;-88
2021/07/29 18:22:23;;;;;;;8.60;3.88;;;22.10;99.90;;;;;;4939434;29;20426;-88
2021/07/29 18:24:50;;;;;;;6.95;4.00;;;21.70;99.90;;;;;;4940759;29;20437;-90
2021/07/29 18:27:17;;;;;;;7.53;3.95;;;21.20;99.90;;;;;;4943063;29;20481;-89
2021/07/29 18:29:44;;;;;;;6.30;4.00;;;20.70;99.90;;;;;;4942955;28;20433;-92
2021/07/29 18:32:11;;;;;;;9.25;4.20;;;20.20;99.90;;;;;;4943068;29;20418;-90
2021/07/29 18:34:38;;;;;;;5.85;4.28;;;19.90;99.90;;;;;;4943368;29;20489;-90
2021/07/29 18:37:05;;;;;;;5.93;4.28;;;19.40;99.90;;;;;;4942598;29;20512;-92
2021/07/29 18:39:32;;;;;;;10.73;4.93;;;19.00;99.90;;;;;;4942888;29;20856;-89
2021/07/29 18:41:59;;;;;;;9.33;4.60;;;18.70;99.90;;;;;;4941970;29;20432;-89
2021/07/29 18:44:26;;;;;;;7.85;4.90;;;18.40;99.90;;;;;;4958992;28;20492;-89
2021/07/29 18:47:03;;;;;;;7.10;4.75;;;18.10;99.90;;;;;;4942870;29;20473;-91
2021/07/29 18:49:30;;;;;;;7.88;4.88;;;17.80;99.90;;;;;;4942510;29;20434;-90
2021/07/29 18:51:57;;;;;;;8.17;4.77;;;17.60;99.90;;;;;;4942302;29;20425;-93
2021/07/29 18:54:25;;;;;;;7.30;4.83;;;17.50;99.90;;;;;;4942516;29;20905;-88
2021/07/29 18:56:52;;;;;;;8.45;5.10;;;17.30;99.90;;;;;;4952087;29;20478;-89
2021/07/29 18:59:19;;;;;;;9.98;5.18;;;17.20;99.90;;;;;;4950486;29;20446;-88
2021/07/29 19:01:46;;;;;;;9.05;5.38;;;17.10;99.90;;;;;;4941915;29;20508;-90
2021/07/29 19:04:13;;;;;;;9.38;4.85;;;17.00;99.90;;;;;;4942473;29;20426;-92
2021/07/29 19:06:41;;;;;;;8.35;5.20;;;17.00;99.90;;;;;;4942409;29;20426;-92
2021/07/29 20:30:55;;;;;;;8.10;5.57;;;15.60;99.90;;;;;;5966413;23;21201;-95
2021/07/29 20:33:24;;;;;;;6.65;5.60;;;15.70;99.90;;;;;;4936276;28;20425;-96
2021/07/29 20:36:05;;;;;;;7.20;5.50;;;15.60;99.90;;;;;;5073092;23;20452;-96
2021/07/29 20:38:35;;;;;;;10.80;5.97;;;15.60;99.90;;;;;;4941120;29;20421;-95
2021/07/29 20:41:35;;;;;;;8.30;5.60;;;15.60;99.90;;;;;;4904455;29;20481;-96
2021/07/29 20:44:06;;;;;;;7.18;5.90;;;15.50;99.90;;;;;;4922276;29;20439;-96
2021/07/29 20:46:36;;;;;;;9.73;5.88;;;15.50;99.90;;;;;;4922000;29;20444;-96
2021/07/29 20:49:04;;;;;;;10.00;5.80;;;15.40;99.90;;;;;;4920627;29;20492;-96
2021/07/29 20:51:54;;;;;;;8.97;5.73;;;15.40;99.90;;;;;;4923303;29;20461;-96
2021/07/29 20:54:32;;;;;;;7.00;5.43;;;15.40;99.90;;;;;;4924148;29;20432;-96
2021/07/29 20:57:11;;;;;;;8.05;5.28;;;15.50;99.90;;;;;;4896580;29;20537;-96
2021/07/29 20:59:39;;;;;;;7.75;5.82;;;15.50;99.90;;;;;;4927619;29;20563;-96
2021/07/29 21:02:13;;;;;;;9.67;6.03;;;15.40;99.90;;;;;;4929399;29;20840;-96
2021/07/29 21:04:50;;;;;;;12.67;6.13;;;15.40;99.90;;;;;;4930289;29;20489;-96
2021/07/29 21:07:25;;;;;;;8.80;5.40;;;15.50;99.90;;;;;;4930333;29;20489;-96
2021/07/29 21:09:53;;;;;;;8.32;5.57;;;15.50;99.90;;;;;;4915125;29;20432;-96
2021/07/29 21:12:26;;;;;;;10.10;6.00;;;15.40;99.90;;;;;;4927765;29;20425;-96
2021/07/29 21:14:56;;;;;;;10.25;5.97;;;15.40;99.90;;;;;;4925921;29;20443;-96
2021/07/29 21:17:23;;;;;;;8.83;6.03;;;15.40;99.90;;;;;;4926489;29;20508;-96
2021/07/29 21:19:52;;;;;;;9.23;5.87;;;15.40;99.90;;;;;;4926638;29;20480;-96
2021/07/29 21:22:20;;;;;;;9.20;5.68;;;15.40;99.90;;;;;;4925985;29;20433;-96
2021/07/29 21:24:50;;;;;;;7.53;5.53;;;15.40;99.90;;;;;;4906940;29;20434;-96
2021/07/29 21:28:15;;;;;;;8.32;5.20;;;15.50;99.90;;;;;;4924000;29;20429;-96
2021/07/29 21:31:57;;;;;;;7.68;5.60;;;15.50;99.90;;;;;;4902098;29;20424;-96
2021/07/29 21:35:59;;;;;;;;;;;;;;;;;;;;;
2021/07/29 21:39:03;;;;;;;;;;;;;;;;;;;;;
2021/07/29 21:42:46;;;;;;;;;;;;;;;;;;;;;
2021/07/29 21:46:14;;;;;;;;;;;;;;;;;;;;;
2021/07/29 21:49:17;;;;;;;;;;;;;;;;;;;;;
2021/07/29 21:54:54;;;;;;;9.70;6.20;;;15.60;99.90;;;;;;5183602;23;20433;-95
2021/07/29 21:57:38;;;;;;;12.37;6.30;;;15.60;99.90;;;;;;5146588;23;20440;-95
2021/07/29 22:00:32;;;;;;;12.85;6.35;;;15.60;99.90;;;;;;4977108;23;20445;-95
2021/07/29 22:03:57;;;;;;;11.38;6.95;;;15.60;99.90;;;;;;4996882;23;20442;-95
2021/07/29 22:23:42;;;;;;;8.55;6.05;;;15.70;99.90;;;;;;5456346;23;20448;-96
2021/07/29 23:07:11;;;;;;;;;;;;;;;;;;;;;
